Time;durP1;ratioP1;P1;durP2;ratioP2;P2;SDS_P1;SDS_P2;PMS_P1;PMS_P2;Temp;Humidity;BMP_temperature;BMP_pressure;BME280_temperature;BME280_humidity;BME280_pressure;Samples;Min_cycle;Max_cycle;Signal;HPM_P1;HPM_P2
2023/04/04 00:01:59;;;;;;;6.20;2.70;;;3.70;96.40;;;;;;4976121;28;20411;-53
2023/04/04 00:04:45;;;;;;;6.05;2.97;;;3.60;96.50;;;;;;4975931;28;20522;-55
2023/04/04 00:07:31;;;;;;;4.30;2.60;;;3.60;96.70;;;;;;4974515;28;20031;-58
2023/04/04 00:10:17;;;;;;;5.50;2.70;;;3.60;96.70;;;;;;4975839;28;20023;-52
2023/04/04 00:13:04;;;;;;;6.78;3.15;;;3.60;97.20;;;;;;4975889;28;20033;-53
2023/04/04 00:15:50;;;;;;;4.72;2.70;;;3.60;97.00;;;;;;4966112;28;20162;-55
2023/04/04 00:18:36;;;;;;;7.97;3.10;;;3.60;97.10;;;;;;4975603;28;20031;-51
2023/04/04 00:21:24;;;;;;;6.47;2.60;;;3.60;97.10;;;;;;4975733;28;20038;-55
2023/04/04 00:24:10;;;;;;;6.18;3.15;;;3.50;97.40;;;;;;4973881;28;20508;-51
2023/04/04 00:26:56;;;;;;;7.68;2.75;;;3.50;97.50;;;;;;4975213;28;20031;-52
2023/04/04 00:29:42;;;;;;;5.22;2.90;;;3.50;97.40;;;;;;4975514;28;20175;-55
2023/04/04 00:32:28;;;;;;;4.97;2.88;;;3.60;97.50;;;;;;4974804;28;20023;-53
2023/04/04 00:35:14;;;;;;;5.53;3.05;;;3.50;97.70;;;;;;4975807;28;20034;-57
2023/04/04 00:38:00;;;;;;;6.22;3.72;;;3.50;97.70;;;;;;4975584;28;20023;-53
2023/04/04 00:40:48;;;;;;;6.00;2.67;;;3.50;97.70;;;;;;4975743;28;20039;-51
2023/04/04 00:43:34;;;;;;;5.57;3.10;;;3.50;98.00;;;;;;4975552;28;20733;-49
2023/04/04 00:46:20;;;;;;;7.55;3.00;;;3.40;98.30;;;;;;4974881;28;20476;-53
2023/04/04 00:49:06;;;;;;;5.50;3.78;;;3.40;98.50;;;;;;4974644;28;20424;-53
2023/04/04 00:51:53;;;;;;;5.20;2.97;;;3.30;98.70;;;;;;4974662;28;20027;-54
2023/04/04 00:54:39;;;;;;;5.40;2.88;;;3.30;98.90;;;;;;4960040;28;20031;-54
2023/04/04 00:57:28;;;;;;;5.25;2.78;;;3.30;98.90;;;;;;4982065;28;20534;-49
2023/04/04 01:00:14;;;;;;;7.30;3.00;;;3.40;99.00;;;;;;4993621;28;20034;-50
2023/04/04 01:03:01;;;;;;;6.75;3.10;;;3.40;99.20;;;;;;4992826;28;20026;-50
2023/04/04 01:05:47;;;;;;;9.98;3.13;;;3.30;99.20;;;;;;4979699;28;20109;-51
2023/04/04 01:08:36;;;;;;;4.35;3.25;;;3.30;99.50;;;;;;4993089;28;20109;-54
2023/04/04 01:11:23;;;;;;;5.47;2.92;;;3.30;99.80;;;;;;4992898;28;20026;-50
2023/04/04 01:14:09;;;;;;;6.70;2.92;;;3.30;99.90;;;;;;4992027;28;20541;-50
2023/04/04 01:16:55;;;;;;;6.97;3.28;;;3.30;99.80;;;;;;4978115;28;20463;-54
2023/04/04 01:19:55;;;;;;;6.85;3.33;;;3.30;99.90;;;;;;4991144;28;20034;-54
2023/04/04 01:22:44;;;;;;;7.78;3.15;;;3.30;99.90;;;;;;4978496;28;20137;-51
2023/04/04 01:25:31;;;;;;;5.68;3.25;;;3.30;99.90;;;;;;4992014;28;20030;-50
2023/04/04 01:28:17;;;;;;;7.55;3.35;;;3.30;99.90;;;;;;4991918;28;20034;-52
2023/04/04 01:31:06;;;;;;;7.20;3.58;;;3.30;99.90;;;;;;4978006;28;20025;-52
2023/04/04 01:34:18;;;;;;;7.57;3.20;;;3.20;99.90;;;;;;4992619;28;20082;-51
2023/04/04 01:37:22;;;;;;;4.40;2.90;;;3.20;99.90;;;;;;4991433;28;20023;-49
2023/04/04 01:40:23;;;;;;;6.95;3.40;;;3.20;99.90;;;;;;4991836;28;20048;-52
2023/04/04 01:43:09;;;;;;;6.65;3.65;;;3.20;99.90;;;;;;4990628;28;20081;-52
2023/04/04 01:46:00;;;;;;;6.57;4.07;;;3.30;99.90;;;;;;4991808;28;20491;-50
2023/04/04 01:48:46;;;;;;;8.05;3.13;;;3.20;99.90;;;;;;4992384;28;20549;-51
2023/04/04 01:51:33;;;;;;;5.78;4.07;;;3.20;99.90;;;;;;4992328;28;20042;-53
2023/04/04 01:54:18;;;;;;;4.75;2.90;;;3.20;99.90;;;;;;4991524;28;20039;-53
2023/04/04 01:57:05;;;;;;;5.90;3.70;;;3.20;99.90;;;;;;4991702;28;20495;-49
2023/04/04 01:59:51;;;;;;;6.45;3.20;;;3.20;99.90;;;;;;4991348;28;20034;-53
2023/04/04 02:02:36;;;;;;;6.97;3.70;;;3.10;99.90;;;;;;4990653;28;20030;-55
2023/04/04 02:05:22;;;;;;;8.27;3.40;;;3.10;99.90;;;;;;4991968;28;20029;-54
2023/04/04 02:08:08;;;;;;;5.38;3.53;;;3.10;99.90;;;;;;4977728;28;20129;-54
2023/04/04 02:10:57;;;;;;;8.20;3.42;;;3.10;99.90;;;;;;4973849;28;20041;-57
2023/04/04 02:13:43;;;;;;;8.30;3.70;;;3.10;99.90;;;;;;4974143;28;20035;-51
2023/04/04 02:16:29;;;;;;;7.55;4.03;;;3.10;99.90;;;;;;4973446;28;20098;-51
2023/04/04 02:19:15;;;;;;;7.20;3.42;;;3.10;99.90;;;;;;4973927;28;20400;-52
2023/04/04 02:22:01;;;;;;;7.80;3.88;;;3.00;99.90;;;;;;4973808;28;20077;-53
2023/04/04 02:24:47;;;;;;;8.25;3.47;;;3.00;99.90;;;;;;4973521;28;20033;-57
2023/04/04 02:27:34;;;;;;;6.78;3.75;;;3.00;99.90;;;;;;4973312;28;20071;-57
2023/04/04 02:30:20;;;;;;;8.55;3.60;;;2.90;99.90;;;;;;4973658;28;20023;-57
2023/04/04 02:33:06;;;;;;;5.78;3.97;;;2.90;99.90;;;;;;4973469;28;20023;-55
2023/04/04 02:35:52;;;;;;;7.25;3.90;;;3.00;99.90;;;;;;4974130;28;20065;-51
2023/04/04 02:38:38;;;;;;;9.93;4.18;;;3.00;99.90;;;;;;4959170;28;20503;-54
2023/04/04 02:41:24;;;;;;;7.20;3.47;;;3.00;99.90;;;;;;4973868;28;20101;-51
2023/04/04 02:44:10;;;;;;;11.68;3.75;;;2.90;99.90;;;;;;4973476;28;20031;-54
2023/04/04 02:46:56;;;;;;;6.95;3.83;;;2.80;99.90;;;;;;4958241;28;20030;-54
2023/04/04 02:49:42;;;;;;;6.10;3.20;;;2.90;99.90;;;;;;4972417;28;20427;-55
2023/04/04 02:52:28;;;;;;;7.35;3.83;;;2.80;99.90;;;;;;4973149;28;20484;-56
2023/04/04 02:55:14;;;;;;;8.18;3.60;;;2.90;99.90;;;;;;4975912;28;20035;-52
2023/04/04 02:58:00;;;;;;;10.77;3.92;;;2.70;99.90;;;;;;4985291;28;20022;-54
2023/04/04 03:00:53;;;;;;;6.85;3.25;;;2.70;99.90;;;;;;4971207;28;20085;-53
2023/04/04 03:03:39;;;;;;;7.78;3.58;;;2.70;99.90;;;;;;4992026;28;20498;-52
2023/04/04 03:06:25;;;;;;;8.23;4.05;;;2.60;99.90;;;;;;4990510;28;20174;-53
2023/04/04 03:09:11;;;;;;;8.32;3.47;;;2.50;99.90;;;;;;4991704;28;20522;-52
2023/04/04 03:11:57;;;;;;;9.93;4.00;;;2.50;99.90;;;;;;4976832;28;20027;-51
2023/04/04 03:14:43;;;;;;;8.30;3.97;;;2.60;99.90;;;;;;4990319;28;20034;-51
2023/04/04 03:17:29;;;;;;;7.47;3.60;;;2.60;99.90;;;;;;4992236;28;20045;-53
2023/04/04 03:20:15;;;;;;;7.47;3.88;;;2.70;99.90;;;;;;4994690;28;20035;-55
2023/04/04 03:23:01;;;;;;;10.18;4.00;;;2.70;99.90;;;;;;4980848;28;20022;-53
2023/04/04 03:25:47;;;;;;;9.98;3.85;;;2.70;99.90;;;;;;4994034;28;20034;-51
2023/04/04 03:28:33;;;;;;;8.95;3.80;;;2.80;99.90;;;;;;4995590;28;20030;-52
2023/04/04 03:31:19;;;;;;;10.02;4.03;;;2.60;99.90;;;;;;4995191;28;20053;-51
2023/04/04 03:34:05;;;;;;;5.53;3.50;;;2.60;99.90;;;;;;4993992;28;20525;-54
2023/04/04 03:36:52;;;;;;;5.65;3.53;;;2.60;99.90;;;;;;4994096;28;20030;-53
2023/04/04 03:39:38;;;;;;;5.22;3.38;;;2.60;99.90;;;;;;4993977;28;20369;-52
2023/04/04 03:42:25;;;;;;;7.72;4.60;;;2.60;99.90;;;;;;4980326;28;20491;-55
2023/04/04 03:45:11;;;;;;;7.50;3.80;;;2.60;99.90;;;;;;4994130;28;20117;-52
2023/04/04 03:47:57;;;;;;;8.60;3.70;;;2.60;99.90;;;;;;4995063;28;20106;-55
2023/04/04 03:50:43;;;;;;;15.82;6.43;;;2.60;99.90;;;;;;4994746;28;20047;-53
2023/04/04 03:53:29;;;;;;;10.75;3.95;;;2.60;99.90;;;;;;4994548;28;20078;-57
2023/04/04 03:56:15;;;;;;;13.73;6.10;;;2.50;99.90;;;;;;4992945;28;20139;-56
2023/04/04 03:59:01;;;;;;;10.20;5.07;;;2.50;99.90;;;;;;4993370;28;20026;-54
2023/04/04 04:01:47;;;;;;;10.75;4.25;;;2.50;99.90;;;;;;4994471;28;20041;-54
2023/04/04 04:04:33;;;;;;;6.43;3.45;;;2.50;99.90;;;;;;4994257;28;20479;-57
2023/04/04 04:07:19;;;;;;;5.63;3.22;;;2.40;99.90;;;;;;4992752;28;20030;-56
2023/04/04 04:10:05;;;;;;;7.03;4.35;;;2.40;99.90;;;;;;4993534;28;20029;-57
2023/04/04 04:12:51;;;;;;;10.13;4.55;;;2.30;99.90;;;;;;4994089;28;20023;-52
2023/04/04 04:15:37;;;;;;;8.63;4.38;;;2.40;99.90;;;;;;4993826;28;20090;-57
2023/04/04 04:18:23;;;;;;;10.50;4.15;;;2.40;99.90;;;;;;4994085;28;20030;-51
2023/04/04 04:21:09;;;;;;;6.93;4.00;;;2.30;99.90;;;;;;4993592;28;20033;-54
2023/04/04 04:23:55;;;;;;;10.43;3.80;;;2.20;99.90;;;;;;4987148;28;20507;-56
2023/04/04 04:26:42;;;;;;;8.38;3.45;;;2.20;99.90;;;;;;4994291;28;20034;-55
2023/04/04 04:29:28;;;;;;;10.38;4.22;;;2.30;99.90;;;;;;4993580;28;20050;-53
2023/04/04 04:32:17;;;;;;;7.95;3.90;;;2.30;99.90;;;;;;4978164;28;20495;-54
2023/04/04 04:35:03;;;;;;;6.75;4.07;;;2.20;99.90;;;;;;4993799;28;20467;-54
2023/04/04 04:37:49;;;;;;;9.23;3.65;;;2.20;99.90;;;;;;4993411;28;20038;-55
2023/04/04 04:40:35;;;;;;;10.10;4.55;;;2.10;99.90;;;;;;4992927;28;20030;-51
2023/04/04 04:43:21;;;;;;;9.43;4.35;;;2.20;99.90;;;;;;4993120;28;20027;-54
2023/04/04 04:46:07;;;;;;;13.07;5.65;;;2.20;99.90;;;;;;4985219;28;20034;-51
2023/04/04 04:48:53;;;;;;;9.38;3.95;;;2.20;99.90;;;;;;4979976;28;20061;-55
2023/04/04 04:51:41;;;;;;;9.73;3.80;;;2.20;99.90;;;;;;4992544;28;20064;-55
2023/04/04 04:54:27;;;;;;;9.30;4.85;;;2.20;99.90;;;;;;4980174;28;20631;-53
2023/04/04 04:57:13;;;;;;;10.75;4.00;;;2.20;99.90;;;;;;4989803;28;20030;-57
2023/04/04 05:00:05;;;;;;;6.85;3.60;;;2.30;99.90;;;;;;4984560;28;20022;-55
2023/04/04 05:02:54;;;;;;;6.97;3.90;;;2.30;99.90;;;;;;4986981;28;20058;-57
2023/04/04 05:05:43;;;;;;;10.57;3.60;;;2.30;99.90;;;;;;4992548;28;20120;-55
2023/04/04 05:08:29;;;;;;;7.47;3.75;;;2.20;99.90;;;;;;4992904;28;20033;-55
2023/04/04 05:11:15;;;;;;;8.15;4.05;;;2.10;99.90;;;;;;4991837;28;20038;-56
2023/04/04 05:14:01;;;;;;;12.60;3.70;;;2.10;99.90;;;;;;4990885;28;20035;-58
2023/04/04 05:16:47;;;;;;;10.13;4.68;;;2.10;99.90;;;;;;4992102;28;20022;-55
2023/04/04 05:19:33;;;;;;;9.52;3.80;;;2.20;99.90;;;;;;4976924;28;20483;-53
2023/04/04 05:22:19;;;;;;;8.10;4.10;;;2.20;99.90;;;;;;4992430;28;20027;-54
2023/04/04 05:25:05;;;;;;;34.90;6.65;;;2.30;99.90;;;;;;4990024;28;20030;-53
2023/04/04 05:27:51;;;;;;;56.10;10.23;;;2.30;99.90;;;;;;4989440;28;20036;-58
2023/04/04 05:30:37;;;;;;;13.30;5.75;;;2.40;99.90;;;;;;4973747;28;20034;-52
2023/04/04 05:33:23;;;;;;;7.78;4.80;;;2.40;99.90;;;;;;4973475;28;20412;-53
2023/04/04 05:36:11;;;;;;;6.80;4.03;;;2.40;99.90;;;;;;4973847;28;20066;-58
2023/04/04 05:38:57;;;;;;;6.10;4.38;;;2.40;99.90;;;;;;4974452;28;20566;-57
2023/04/04 05:41:43;;;;;;;9.57;4.88;;;2.40;99.90;;;;;;4982330;28;20035;-59
2023/04/04 05:44:29;;;;;;;9.60;5.05;;;2.40;99.90;;;;;;4986022;28;20034;-55
2023/04/04 05:47:15;;;;;;;10.90;4.65;;;2.50;99.90;;;;;;4984078;28;20019;-52
2023/04/04 05:50:01;;;;;;;10.88;4.85;;;2.50;99.90;;;;;;4979380;28;20111;-56
2023/04/04 05:52:47;;;;;;;20.35;5.30;;;2.50;99.90;;;;;;4981625;28;20431;-57
2023/04/04 05:55:32;;;;;;;9.07;4.00;;;2.50;99.90;;;;;;4982127;28;20527;-56
2023/04/04 05:58:18;;;;;;;15.07;5.03;;;2.60;99.90;;;;;;4979382;28;20031;-57
2023/04/04 06:01:08;;;;;;;7.53;3.97;;;2.60;99.90;;;;;;4981970;28;20033;-59
2023/04/04 06:03:55;;;;;;;11.10;5.07;;;2.50;99.90;;;;;;4980594;28;20034;-57
2023/04/04 06:06:41;;;;;;;10.02;4.43;;;2.50;99.90;;;;;;4980090;28;20038;-54
2023/04/04 06:09:27;;;;;;;7.35;4.20;;;2.50;99.90;;;;;;4978528;28;20055;-58
2023/04/04 06:12:13;;;;;;;7.97;4.10;;;2.50;99.90;;;;;;4979704;28;20054;-57
2023/04/04 06:14:59;;;;;;;10.70;4.45;;;2.60;99.90;;;;;;4979264;28;20027;-56
2023/04/04 06:17:45;;;;;;;10.35;4.28;;;2.70;99.90;;;;;;4979382;28;20027;-57
2023/04/04 06:20:31;;;;;;;10.35;4.40;;;2.70;99.90;;;;;;4978686;28;20037;-57
2023/04/04 06:23:17;;;;;;;18.63;8.52;;;2.90;99.90;;;;;;4980475;28;20042;-56
2023/04/04 06:26:03;;;;;;;15.95;7.57;;;2.90;99.90;;;;;;4978885;28;20081;-57
2023/04/04 06:28:49;;;;;;;10.27;4.40;;;3.00;99.90;;;;;;4978885;28;20031;-55
2023/04/04 06:31:35;;;;;;;15.73;4.65;;;3.00;99.90;;;;;;4966892;28;20029;-56
2023/04/04 06:34:21;;;;;;;8.63;4.18;;;3.10;99.90;;;;;;4964964;28;20077;-59
2023/04/04 06:37:07;;;;;;;17.20;7.50;;;3.10;99.90;;;;;;4965433;28;20054;-56
2023/04/04 06:39:53;;;;;;;8.77;4.30;;;3.10;99.90;;;;;;4973582;28;20027;-52
2023/04/04 06:42:48;;;;;;;11.25;4.10;;;3.00;99.90;;;;;;4973242;28;20078;-56
2023/04/04 06:45:34;;;;;;;9.65;5.60;;;3.10;99.90;;;;;;4975081;28;20440;-54
2023/04/04 06:48:20;;;;;;;7.72;3.85;;;3.10;99.90;;;;;;4962367;28;20035;-52
2023/04/04 06:51:07;;;;;;;10.75;4.63;;;3.10;99.90;;;;;;4975671;28;20046;-55
2023/04/04 06:53:55;;;;;;;11.40;4.05;;;3.20;99.90;;;;;;4981264;28;20026;-58
2023/04/04 06:56:41;;;;;;;10.15;4.72;;;3.30;99.90;;;;;;4979903;28;20550;-57
2023/04/04 06:59:27;;;;;;;8.60;4.25;;;3.40;99.90;;;;;;4977381;28;20042;-56
2023/04/04 07:02:13;;;;;;;8.02;4.10;;;3.40;99.90;;;;;;4994102;28;20451;-55
2023/04/04 07:04:59;;;;;;;7.20;3.97;;;3.60;99.90;;;;;;4989893;28;20089;-56
2023/04/04 07:07:45;;;;;;;13.60;4.55;;;3.80;99.70;;;;;;4998528;28;20098;-55
2023/04/04 07:10:31;;;;;;;9.10;4.18;;;3.80;99.80;;;;;;4998641;28;20042;-54
2023/04/04 07:13:17;;;;;;;10.23;4.13;;;3.90;99.90;;;;;;5001296;28;20030;-51
2023/04/04 07:16:03;;;;;;;7.95;4.65;;;4.10;99.90;;;;;;5001449;28;20038;-55
2023/04/04 07:18:49;;;;;;;7.85;3.83;;;4.20;99.50;;;;;;4993814;28;20045;-56
2023/04/04 07:21:35;;;;;;;8.02;3.97;;;4.30;99.00;;;;;;4995212;28;20038;-54
2023/04/04 07:24:21;;;;;;;9.07;3.60;;;4.10;99.00;;;;;;4990499;28;20487;-57
2023/04/04 07:27:07;;;;;;;11.43;3.83;;;4.00;99.30;;;;;;4991747;28;20046;-58
2023/04/04 07:29:53;;;;;;;10.15;4.13;;;4.30;99.00;;;;;;4992702;28;20435;-55
2023/04/04 07:32:39;;;;;;;10.18;4.10;;;4.30;99.10;;;;;;4994957;28;20039;-57
2023/04/04 07:35:25;;;;;;;7.80;4.03;;;4.40;98.90;;;;;;4995087;28;20214;-55
2023/04/04 07:38:11;;;;;;;6.60;3.85;;;4.50;98.30;;;;;;4993858;28;20058;-56
2023/04/04 07:40:57;;;;;;;7.78;3.47;;;4.60;97.80;;;;;;4987446;28;20026;-56
2023/04/04 07:43:43;;;;;;;9.45;3.70;;;4.70;97.70;;;;;;4994430;28;20030;-57
2023/04/04 07:46:29;;;;;;;8.65;3.58;;;4.60;98.30;;;;;;4993976;28;20112;-52
2023/04/04 07:49:15;;;;;;;10.73;3.95;;;4.70;98.20;;;;;;4992784;28;20022;-53
2023/04/04 07:52:02;;;;;;;7.28;3.80;;;4.90;97.70;;;;;;4994024;28;20019;-54
2023/04/04 07:54:48;;;;;;;7.30;3.67;;;5.10;97.50;;;;;;4994956;28;20085;-55
2023/04/04 07:57:37;;;;;;;6.97;3.45;;;5.10;96.70;;;;;;4991236;28;20410;-63
2023/04/04 08:00:25;;;;;;;6.95;3.45;;;5.10;96.90;;;;;;4994922;28;20054;-57
2023/04/04 08:03:11;;;;;;;8.77;3.75;;;5.10;96.00;;;;;;4994625;28;20033;-50
2023/04/04 08:05:57;;;;;;;6.72;3.28;;;4.80;95.90;;;;;;4997655;28;20033;-56
2023/04/04 08:08:43;;;;;;;8.18;3.40;;;5.00;96.40;;;;;;4997899;28;20523;-57
2023/04/04 08:11:29;;;;;;;5.93;3.30;;;4.90;95.60;;;;;;4987292;28;20068;-55
2023/04/04 08:14:15;;;;;;;7.43;3.35;;;5.20;95.30;;;;;;4983231;28;20022;-56
2023/04/04 08:17:01;;;;;;;4.72;3.22;;;5.30;95.30;;;;;;4973649;28;20107;-57
2023/04/04 08:19:47;;;;;;;8.10;3.60;;;5.20;94.90;;;;;;4987276;28;20038;-54
2023/04/04 08:22:33;;;;;;;7.55;3.20;;;5.30;95.20;;;;;;4982796;28;20033;-53
2023/04/04 08:25:19;;;;;;;10.25;4.88;;;5.20;93.80;;;;;;4989934;28;20411;-51
2023/04/04 08:28:05;;;;;;;7.68;3.38;;;5.10;94.20;;;;;;4992876;28;20030;-58
2023/04/04 08:30:53;;;;;;;6.40;3.28;;;5.10;94.20;;;;;;4984168;28;20110;-59
2023/04/04 08:33:39;;;;;;;8.90;3.95;;;5.20;94.30;;;;;;4982667;28;20027;-59
2023/04/04 08:36:25;;;;;;;9.93;3.70;;;5.50;94.60;;;;;;4988845;28;20034;-57
2023/04/04 08:39:10;;;;;;;6.60;3.42;;;5.50;93.70;;;;;;4990933;28;20038;-57
2023/04/04 08:42:01;;;;;;;6.70;3.42;;;5.60;94.00;;;;;;4994751;28;20069;-57
2023/04/04 08:44:51;;;;;;;7.15;3.80;;;5.90;93.80;;;;;;4992348;28;20026;-58
2023/04/04 08:47:39;;;;;;;7.28;3.20;;;6.00;93.40;;;;;;5001483;28;20085;-58
2023/04/04 08:50:27;;;;;;;6.07;3.78;;;6.00;93.30;;;;;;4994995;28;20038;-58
2023/04/04 08:53:15;;;;;;;9.40;4.15;;;6.20;93.00;;;;;;4996281;28;20077;-56
2023/04/04 08:56:01;;;;;;;18.30;3.97;;;6.20;93.00;;;;;;4988378;28;20053;-57
2023/04/04 08:58:47;;;;;;;9.43;3.88;;;6.30;92.60;;;;;;4988019;28;20031;-52
2023/04/04 09:01:33;;;;;;;6.07;3.53;;;6.20;92.90;;;;;;5010424;28;20018;-54
2023/04/04 09:04:21;;;;;;;10.38;4.50;;;6.00;93.20;;;;;;4977399;28;20034;-58
2023/04/04 09:07:08;;;;;;;5.18;3.30;;;5.80;92.90;;;;;;4998527;28;20102;-54
2023/04/04 09:09:55;;;;;;;6.30;3.60;;;6.00;93.10;;;;;;5004516;28;20022;-55
2023/04/04 09:12:44;;;;;;;4.60;3.42;;;6.10;92.40;;;;;;4987685;28;20031;-55
2023/04/04 09:15:31;;;;;;;6.05;3.38;;;6.10;91.90;;;;;;4989708;28;20031;-55
2023/04/04 09:18:17;;;;;;;5.53;3.13;;;6.20;91.50;;;;;;5006348;28;20073;-53
2023/04/04 09:21:11;;;;;;;9.00;3.70;;;5.90;91.20;;;;;;4997860;28;20034;-54
2023/04/04 09:24:01;;;;;;;14.13;3.88;;;5.60;91.50;;;;;;5001455;28;20037;-54
2023/04/04 09:26:48;;;;;;;6.75;3.67;;;5.50;91.70;;;;;;4999331;28;20129;-58
2023/04/04 09:29:35;;;;;;;9.20;3.72;;;5.30;92.10;;;;;;4981965;28;20237;-54
2023/04/04 09:32:23;;;;;;;5.07;2.53;;;5.30;90.10;;;;;;5003774;28;20070;-58
2023/04/04 09:35:14;;;;;;;4.07;2.25;;;5.20;88.60;;;;;;5011906;28;20037;-57
2023/04/04 09:38:01;;;;;;;5.80;2.83;;;5.10;87.10;;;;;;5003056;28;20471;-58
2023/04/04 09:40:47;;;;;;;5.30;2.78;;;5.50;87.20;;;;;;5010426;28;20123;-59
2023/04/04 09:43:33;;;;;;;7.97;3.30;;;5.90;85.50;;;;;;4999557;28;20153;-58
2023/04/04 09:46:20;;;;;;;6.80;3.10;;;6.10;85.80;;;;;;5004112;28;20045;-55
2023/04/04 09:49:10;;;;;;;7.03;3.90;;;6.00;88.70;;;;;;4998953;28;20071;-57
2023/04/04 09:51:56;;;;;;;5.85;3.47;;;5.90;89.30;;;;;;4994659;28;20038;-57
2023/04/04 09:54:43;;;;;;;7.35;3.33;;;5.90;90.00;;;;;;4995499;28;20062;-59
2023/04/04 09:57:31;;;;;;;5.95;3.17;;;5.90;90.30;;;;;;4982603;28;20039;-57
2023/04/04 10:00:19;;;;;;;7.20;3.15;;;5.70;90.90;;;;;;4988660;28;20030;-56
2023/04/04 10:03:05;;;;;;;6.20;2.85;;;5.70;90.90;;;;;;4993895;28;20474;-57
2023/04/04 10:06:05;;;;;;;5.97;2.95;;;6.00;90.50;;;;;;4992443;28;20085;-58
2023/04/04 10:08:51;;;;;;;6.30;2.70;;;5.80;90.30;;;;;;4991657;28;20019;-59
2023/04/04 10:11:38;;;;;;;6.10;3.38;;;5.80;90.50;;;;;;4993222;28;20154;-58
2023/04/04 10:14:33;;;;;;;5.03;3.22;;;5.70;89.50;;;;;;4992028;28;20380;-58
2023/04/04 10:17:21;;;;;;;5.63;3.22;;;5.60;88.70;;;;;;4990500;28;20034;-56
2023/04/04 10:20:08;;;;;;;5.90;3.42;;;5.50;87.90;;;;;;4987011;28;20471;-55
2023/04/04 10:22:54;;;;;;;4.55;2.67;;;5.70;88.30;;;;;;4987757;28;20026;-58
2023/04/04 10:25:40;;;;;;;5.68;3.05;;;6.00;86.40;;;;;;4985033;28;20113;-57
2023/04/04 10:28:27;;;;;;;4.60;2.90;;;6.00;85.90;;;;;;4969233;28;20546;-57
2023/04/04 10:31:23;;;;;;;6.50;3.13;;;6.10;86.90;;;;;;4984371;28;20034;-58
2023/04/04 10:34:27;;;;;;;4.50;2.80;;;6.50;85.70;;;;;;4984141;28;20018;-54
2023/04/04 10:37:19;;;;;;;5.97;2.85;;;6.90;86.70;;;;;;4989298;28;20034;-58
2023/04/04 10:40:19;;;;;;;5.65;3.30;;;6.90;83.90;;;;;;4991055;28;20019;-52
2023/04/04 10:43:06;;;;;;;8.75;4.28;;;6.30;83.80;;;;;;4990848;28;20018;-53
2023/04/04 10:45:52;;;;;;;3.92;2.83;;;6.20;85.00;;;;;;4992321;28;20027;-58
2023/04/04 10:48:40;;;;;;;5.55;2.80;;;5.80;85.00;;;;;;4990761;28;20050;-50
2023/04/04 10:51:26;;;;;;;5.90;2.80;;;5.70;86.00;;;;;;4992062;28;20038;-53
2023/04/04 10:54:13;;;;;;;4.45;2.83;;;6.00;86.30;;;;;;4994463;28;20026;-56
2023/04/04 10:57:02;;;;;;;6.97;3.33;;;6.30;86.10;;;;;;4995461;28;20022;-56
2023/04/04 11:00:00;;;;;;;4.47;2.60;;;6.50;85.30;;;;;;4992573;28;20030;-53
2023/04/04 11:02:56;;;;;;;5.60;3.10;;;6.50;84.70;;;;;;4992644;28;20519;-54
2023/04/04 11:05:50;;;;;;;5.72;3.58;;;6.60;86.10;;;;;;4994252;28;20030;-56
2023/04/04 11:08:39;;;;;;;7.82;3.15;;;6.30;87.60;;;;;;4992225;28;20053;-54
2023/04/04 11:11:25;;;;;;;7.72;3.85;;;6.30;87.40;;;;;;4991913;28;20073;-58
2023/04/04 11:14:11;;;;;;;4.18;2.97;;;6.00;88.30;;;;;;4999623;28;20033;-59
2023/04/04 11:16:59;;;;;;;5.18;3.40;;;6.00;88.40;;;;;;5001820;28;20040;-59
2023/04/04 11:19:58;;;;;;;4.78;3.10;;;6.20;87.60;;;;;;4992826;28;20044;-54
2023/04/04 11:22:44;;;;;;;5.90;3.95;;;6.20;86.80;;;;;;5001078;28;20029;-58
2023/04/04 11:25:36;;;;;;;5.90;3.45;;;6.20;87.50;;;;;;4986904;28;20030;-57
2023/04/04 11:28:33;;;;;;;5.65;2.88;;;6.10;86.90;;;;;;4997417;28;20102;-57
2023/04/04 11:31:27;;;;;;;4.63;2.97;;;6.30;86.60;;;;;;5000806;28;20073;-56
2023/04/04 11:34:28;;;;;;;7.57;3.10;;;6.40;85.40;;;;;;5009046;28;20027;-56
2023/04/04 11:37:18;;;;;;;4.53;3.33;;;6.70;86.20;;;;;;5010423;28;20418;-56
2023/04/04 11:40:12;;;;;;;5.57;2.97;;;6.70;84.80;;;;;;5014624;28;20030;-58
2023/04/04 11:43:02;;;;;;;4.68;2.88;;;6.70;84.60;;;;;;5015093;28;20034;-59
2023/04/04 11:45:48;;;;;;;6.30;2.92;;;6.70;83.60;;;;;;5014853;28;20038;-55
2023/04/04 11:48:34;;;;;;;6.00;3.33;;;6.60;82.30;;;;;;5015417;28;20022;-69
2023/04/04 11:51:21;;;;;;;4.25;2.90;;;6.80;82.90;;;;;;4999399;28;20088;-57
2023/04/04 11:54:17;;;;;;;4.25;3.05;;;6.80;80.20;;;;;;4999267;28;20053;-59
2023/04/04 11:57:12;;;;;;;5.05;2.85;;;6.70;81.50;;;;;;5014580;28;20102;-57
2023/04/04 11:59:57;;;;;;;4.57;3.00;;;6.60;80.60;;;;;;5015183;28;20026;-56
2023/04/04 12:02:44;;;;;;;5.60;2.83;;;6.60;81.50;;;;;;5015235;28;20743;-58
2023/04/04 12:05:30;;;;;;;4.68;2.88;;;6.80;82.00;;;;;;5015048;28;20030;-55
2023/04/04 12:08:17;;;;;;;6.63;3.00;;;7.10;80.80;;;;;;5013533;28;20029;-57
2023/04/04 12:11:05;;;;;;;4.90;3.15;;;7.20;82.10;;;;;;5014857;28;20450;-57
2023/04/04 12:13:52;;;;;;;5.50;2.70;;;7.20;82.30;;;;;;5014727;28;20028;-56
2023/04/04 12:16:38;;;;;;;4.78;3.03;;;6.90;83.00;;;;;;5015402;28;20041;-57
2023/04/04 12:19:25;;;;;;;5.50;2.80;;;6.70;80.80;;;;;;5015366;28;20033;-55
2023/04/04 12:22:11;;;;;;;4.13;2.60;;;6.60;81.10;;;;;;5015013;28;20026;-56
2023/04/04 12:24:57;;;;;;;4.45;3.20;;;6.50;81.00;;;;;;5003476;28;20058;-55
2023/04/04 12:27:43;;;;;;;6.90;3.20;;;6.50;81.40;;;;;;4994946;28;20082;-55
2023/04/04 12:30:30;;;;;;;9.88;3.13;;;6.70;81.50;;;;;;4993748;28;20027;-56
2023/04/04 12:33:19;;;;;;;7.95;2.95;;;7.00;81.70;;;;;;4995262;28;20099;-51
2023/04/04 12:36:05;;;;;;;6.18;2.88;;;7.40;80.20;;;;;;4994835;28;20089;-49
2023/04/04 12:39:04;;;;;;;5.55;2.72;;;7.90;79.50;;;;;;4994325;28;20039;-48
2023/04/04 12:41:57;;;;;;;9.00;3.17;;;7.70;78.70;;;;;;5004622;28;20026;-48
2023/04/04 12:44:43;;;;;;;5.50;2.55;;;7.10;79.80;;;;;;5006741;28;20056;-56
2023/04/04 12:47:30;;;;;;;4.28;2.85;;;6.80;78.50;;;;;;4975623;28;20039;-54
2023/04/04 12:50:25;;;;;;;3.83;2.63;;;6.60;78.80;;;;;;4991777;28;20506;-55
2023/04/04 12:53:11;;;;;;;7.20;3.22;;;6.80;78.20;;;;;;4991699;28;20406;-54
2023/04/04 12:56:05;;;;;;;4.35;2.97;;;7.00;79.40;;;;;;5004168;28;20034;-51
2023/04/04 12:58:51;;;;;;;4.05;2.60;;;7.50;80.30;;;;;;5001284;28;20026;-47
2023/04/04 13:01:37;;;;;;;5.07;3.10;;;8.10;78.60;;;;;;5003433;28;20025;-48
2023/04/04 13:04:23;;;;;;;4.72;2.95;;;8.00;79.30;;;;;;4995019;28;20566;-48
2023/04/04 13:07:26;;;;;;;5.93;3.47;;;7.60;80.00;;;;;;4979421;28;20065;-50
2023/04/04 13:10:14;;;;;;;4.95;2.90;;;7.10;81.10;;;;;;4989226;28;20018;-53
2023/04/04 13:13:02;;;;;;;5.47;2.80;;;7.10;81.30;;;;;;4991643;28;20038;-52
2023/04/04 13:15:49;;;;;;;7.25;3.35;;;7.00;81.70;;;;;;4992955;28;20038;-51
2023/04/04 13:18:37;;;;;;;4.68;2.83;;;7.10;81.20;;;;;;4993332;28;20566;-50
2023/04/04 13:21:27;;;;;;;4.18;2.88;;;7.30;80.20;;;;;;4996504;28;20137;-55
2023/04/04 13:24:13;;;;;;;6.78;3.00;;;7.30;79.20;;;;;;4992184;28;20033;-53
2023/04/04 13:26:59;;;;;;;5.75;3.05;;;7.70;78.20;;;;;;5005037;28;20026;-55
2023/04/04 13:29:45;;;;;;;4.88;3.13;;;8.20;78.10;;;;;;4975404;28;20037;-53
2023/04/04 13:32:31;;;;;;;4.28;2.67;;;8.60;77.00;;;;;;4974626;28;20022;-48
2023/04/04 13:35:17;;;;;;;3.95;2.88;;;9.00;75.70;;;;;;4974478;28;20768;-48
2023/04/04 13:38:04;;;;;;;4.57;2.78;;;9.10;75.60;;;;;;4974003;28;20041;-48
2023/04/04 13:40:49;;;;;;;4.82;3.00;;;8.70;75.10;;;;;;4975693;28;20038;-49
2023/04/04 13:43:35;;;;;;;8.63;3.25;;;8.10;75.90;;;;;;4962414;28;20031;-47
2023/04/04 13:46:21;;;;;;;4.65;2.85;;;7.70;77.30;;;;;;4961115;28;20034;-51
2023/04/04 13:49:09;;;;;;;6.13;3.15;;;7.60;78.50;;;;;;4977344;28;20465;-48
2023/04/04 13:51:55;;;;;;;6.30;3.00;;;7.60;79.10;;;;;;4977005;28;20105;-53
2023/04/04 13:54:42;;;;;;;4.47;2.78;;;7.50;79.70;;;;;;4975912;28;20066;-55
2023/04/04 13:57:28;;;;;;;5.20;3.05;;;7.60;80.30;;;;;;4974692;28;20110;-55
2023/04/04 14:00:14;;;;;;;6.15;2.97;;;7.40;79.70;;;;;;4977581;28;20084;-52
2023/04/04 14:03:02;;;;;;;6.00;3.05;;;7.40;79.90;;;;;;4972942;28;20034;-49
2023/04/04 14:05:48;;;;;;;5.07;3.08;;;7.60;79.40;;;;;;4975718;28;20027;-52
2023/04/04 14:08:34;;;;;;;8.13;2.80;;;7.70;80.00;;;;;;4974359;28;20051;-52
2023/04/04 14:11:20;;;;;;;6.15;3.00;;;7.70;78.90;;;;;;4973475;28;20103;-55
2023/04/04 14:14:06;;;;;;;5.07;3.25;;;7.60;78.90;;;;;;4973486;28;20463;-48
2023/04/04 14:16:52;;;;;;;5.65;3.45;;;7.70;78.60;;;;;;4958936;28;20356;-49
2023/04/04 14:19:38;;;;;;;5.13;2.97;;;8.20;76.00;;;;;;4973735;28;20030;-54
2023/04/04 14:22:24;;;;;;;4.43;3.05;;;8.30;75.90;;;;;;4973573;28;20038;-52
2023/04/04 14:25:10;;;;;;;7.90;5.22;;;8.50;76.00;;;;;;4973185;28;20054;-54
2023/04/04 14:27:56;;;;;;;7.53;3.28;;;8.70;74.80;;;;;;4973154;28;20035;-54
2023/04/04 14:30:42;;;;;;;5.40;2.92;;;9.10;73.60;;;;;;4959829;28;20175;-52
2023/04/04 14:33:28;;;;;;;3.10;2.45;;;9.80;74.30;;;;;;4974000;28;20042;-55
2023/04/04 14:36:14;;;;;;;6.03;2.88;;;10.50;73.80;;;;;;4974285;28;20479;-53
2023/04/04 14:39:00;;;;;;;4.97;2.80;;;11.00;70.30;;;;;;4973127;28;20039;-57
2023/04/04 14:41:47;;;;;;;4.13;2.80;;;10.80;68.10;;;;;;4972948;28;20038;-50